Time;durP1;ratioP1;P1;durP2;ratioP2;P2;SDS_P1;SDS_P2;PMS_P1;PMS_P2;Temp;Humidity;BMP_temperature;BMP_pressure;BME280_temperature;BME280_humidity;BME280_pressure;Samples;Min_cycle;Max_cycle;Signal;HPM_P1;HPM_P2
2023/01/02 00:00:16;;;;;;;9.17;2.37;;;16.30;99.90;;;;;;5032223;28;20260;-74
2023/01/02 00:02:43;;;;;;;8.53;2.17;;;16.30;99.90;;;;;;5048563;28;20592;-73
2023/01/02 00:05:09;;;;;;;5.80;1.63;;;16.40;99.90;;;;;;5015019;28;20568;-73
2023/01/02 00:07:35;;;;;;;5.40;1.30;;;16.40;99.90;;;;;;5049041;28;20679;-72
2023/01/02 00:10:01;;;;;;;7.00;2.23;;;16.50;99.90;;;;;;5015415;28;20690;-73
2023/01/02 00:12:27;;;;;;;7.70;1.83;;;16.40;99.90;;;;;;5031666;28;20193;-74
2023/01/02 00:14:52;;;;;;;6.50;1.70;;;16.50;99.90;;;;;;5031537;28;20169;-73
2023/01/02 00:17:19;;;;;;;5.23;1.90;;;16.50;99.90;;;;;;5049848;28;20584;-73
2023/01/02 00:19:45;;;;;;;4.07;1.60;;;16.50;99.90;;;;;;5049788;28;20556;-73
2023/01/02 00:22:11;;;;;;;6.73;2.33;;;16.50;99.90;;;;;;5049689;28;20611;-73
2023/01/02 00:24:36;;;;;;;6.27;2.20;;;16.50;99.90;;;;;;5049403;28;20556;-73
2023/01/02 00:27:02;;;;;;;4.77;2.13;;;16.50;99.90;;;;;;5031468;28;20568;-73
2023/01/02 00:29:28;;;;;;;5.67;2.73;;;16.50;99.90;;;;;;5049926;28;20747;-73
2023/01/02 00:31:53;;;;;;;3.47;1.50;;;16.50;99.90;;;;;;5031167;28;20215;-73
2023/01/02 00:34:19;;;;;;;2.90;1.40;;;16.60;99.90;;;;;;5031397;28;20835;-73
2023/01/02 00:36:45;;;;;;;4.63;1.53;;;16.60;99.90;;;;;;5055711;28;20176;-73
2023/01/02 00:39:10;;;;;;;4.97;1.40;;;16.60;99.90;;;;;;5061223;28;20198;-73
2023/01/02 00:41:36;;;;;;;5.00;1.60;;;16.60;99.90;;;;;;5045476;28;20228;-73
2023/01/02 00:44:02;;;;;;;7.07;2.17;;;16.60;99.90;;;;;;5051534;28;20306;-73
2023/01/02 00:46:28;;;;;;;9.20;1.77;;;16.60;99.90;;;;;;5060212;28;20161;-74
2023/01/02 00:48:53;;;;;;;4.90;1.63;;;16.60;99.90;;;;;;5039252;28;20651;-73
2023/01/02 00:51:19;;;;;;;2.17;1.20;;;16.50;99.90;;;;;;5041832;28;20192;-73
2023/01/02 00:53:44;;;;;;;5.90;2.00;;;16.50;99.90;;;;;;5028051;28;20184;-73
2023/01/02 00:56:10;;;;;;;4.80;2.03;;;16.50;99.90;;;;;;5053605;28;20165;-74
2023/01/02 00:58:36;;;;;;;5.40;1.63;;;16.50;99.90;;;;;;5042857;28;20660;-74
2023/01/02 01:01:02;;;;;;;5.33;1.37;;;16.50;99.90;;;;;;5048619;28;20692;-75
2023/01/02 01:03:28;;;;;;;6.70;2.00;;;16.50;99.90;;;;;;5065794;28;20538;-74
2023/01/02 01:05:54;;;;;;;3.90;1.53;;;16.60;99.90;;;;;;5043135;28;21228;-74
2023/01/02 01:08:20;;;;;;;3.20;1.60;;;16.60;99.90;;;;;;5037952;28;20769;-73
2023/01/02 01:10:46;;;;;;;10.50;2.50;;;16.60;99.90;;;;;;5038714;28;20204;-73
2023/01/02 01:13:11;;;;;;;4.73;2.27;;;16.60;99.90;;;;;;5064609;28;20192;-73
2023/01/02 01:15:37;;;;;;;6.50;1.43;;;16.60;99.90;;;;;;5043762;28;20177;-74
2023/01/02 01:18:03;;;;;;;8.60;1.50;;;16.60;99.90;;;;;;5039488;28;20180;-73
2023/01/02 01:20:29;;;;;;;4.27;1.70;;;16.60;99.90;;;;;;5038160;28;20204;-74
2023/01/02 01:22:54;;;;;;;9.30;1.40;;;16.60;99.90;;;;;;5059850;28;20628;-73
2023/01/02 01:25:20;;;;;;;3.20;1.70;;;16.60;99.90;;;;;;5042040;28;20180;-74
2023/01/02 01:27:46;;;;;;;4.60;2.13;;;16.70;99.90;;;;;;5044452;28;20181;-73
2023/01/02 01:30:11;;;;;;;5.43;2.17;;;16.70;99.90;;;;;;5052887;28;20640;-74
2023/01/02 01:32:37;;;;;;;3.83;2.00;;;16.60;99.90;;;;;;5040823;28;20258;-74
2023/01/02 01:35:04;;;;;;;4.50;1.40;;;16.70;99.90;;;;;;5056099;28;20602;-73
2023/01/02 01:37:30;;;;;;;5.10;1.30;;;16.70;99.90;;;;;;5043722;28;20582;-74
2023/01/02 01:39:55;;;;;;;5.07;1.80;;;16.70;99.90;;;;;;5050532;28;20640;-73
2023/01/02 01:42:21;;;;;;;4.67;1.60;;;16.70;99.90;;;;;;5068622;28;20192;-73
2023/01/02 01:44:47;;;;;;;7.27;1.70;;;16.70;99.90;;;;;;5068061;28;20514;-73
2023/01/02 01:47:31;;;;;;;7.70;1.97;;;16.70;99.90;;;;;;5051076;28;20176;-73
2023/01/02 01:50:08;;;;;;;3.63;1.80;;;16.60;99.90;;;;;;5037275;28;20212;-73
2023/01/02 01:52:38;;;;;;;4.60;1.30;;;16.70;99.90;;;;;;5073503;28;20620;-72
2023/01/02 01:55:19;;;;;;;6.33;1.90;;;16.70;99.90;;;;;;5083038;28;20969;-73
2023/01/02 01:57:53;;;;;;;6.70;1.80;;;16.70;99.90;;;;;;5059158;28;20589;-72
2023/01/02 02:00:19;;;;;;;2.20;1.00;;;16.70;99.90;;;;;;5078460;28;20598;-73
2023/01/02 02:02:48;;;;;;;4.73;1.70;;;16.70;99.90;;;;;;5071382;28;20768;-73
2023/01/02 02:05:20;;;;;;;4.03;1.20;;;16.70;99.90;;;;;;5073173;28;20961;-73
2023/01/02 02:07:56;;;;;;;5.17;1.33;;;16.70;99.90;;;;;;5039373;28;20578;-72
2023/01/02 02:10:22;;;;;;;5.80;1.67;;;16.70;99.90;;;;;;5055556;28;20598;-72
2023/01/02 02:12:48;;;;;;;4.10;1.20;;;16.70;99.90;;;;;;5055493;28;21203;-73
2023/01/02 02:15:18;;;;;;;6.33;2.37;;;16.70;99.90;;;;;;5055362;28;20172;-72
2023/01/02 02:17:59;;;;;;;7.60;1.83;;;16.70;99.90;;;;;;5073317;28;20242;-72
2023/01/02 02:20:40;;;;;;;5.13;1.27;;;16.70;99.90;;;;;;5054627;28;20610;-72
2023/01/02 02:23:11;;;;;;;2.40;1.40;;;16.70;99.90;;;;;;5071662;28;20961;-72
2023/01/02 02:26:03;;;;;;;4.10;1.20;;;16.70;99.90;;;;;;5054408;28;21311;-72
2023/01/02 02:29:01;;;;;;;5.43;1.57;;;16.70;99.90;;;;;;5054264;28;20598;-72
2023/01/02 02:32:05;;;;;;;12.17;2.73;;;16.70;99.90;;;;;;5053513;28;21651;-72
2023/01/02 02:34:40;;;;;;;2.30;1.57;;;16.80;99.90;;;;;;5053656;28;20618;-73
2023/01/02 02:37:28;;;;;;;4.40;1.60;;;16.70;99.90;;;;;;5071536;28;20613;-72
2023/01/02 02:40:26;;;;;;;6.67;1.83;;;16.70;99.90;;;;;;5053950;28;20567;-73
2023/01/02 02:43:18;;;;;;;7.47;1.77;;;16.70;99.90;;;;;;5053465;28;21156;-72
2023/01/02 02:46:07;;;;;;;6.07;1.60;;;16.70;99.90;;;;;;5071734;28;20567;-73
2023/01/02 02:48:42;;;;;;;6.47;1.13;;;16.70;99.90;;;;;;5025429;28;21115;-73
2023/01/02 02:51:50;;;;;;;7.27;2.00;;;16.70;99.90;;;;;;5053317;28;21130;-73
2023/01/02 02:54:23;;;;;;;3.90;1.20;;;16.60;99.90;;;;;;5036143;28;21028;-73
2023/01/02 02:56:51;;;;;;;4.23;1.67;;;16.60;99.90;;;;;;5062055;23;21259;-78
2023/01/02 02:59:18;;;;;;;2.70;1.40;;;16.70;99.90;;;;;;5033213;28;20591;-79
2023/01/02 03:01:44;;;;;;;9.23;1.73;;;16.60;99.90;;;;;;5049761;28;20602;-78
2023/01/02 03:04:21;;;;;;;5.00;1.80;;;16.60;99.90;;;;;;5015758;28;20591;-78
2023/01/02 03:07:03;;;;;;;8.13;1.63;;;16.50;99.90;;;;;;5029823;28;20206;-78
2023/01/02 03:09:40;;;;;;;3.40;1.40;;;16.60;99.90;;;;;;5011672;28;20672;-79
2023/01/02 03:12:23;;;;;;;4.57;1.27;;;16.60;99.90;;;;;;5011472;28;21187;-78
2023/01/02 03:15:13;;;;;;;2.57;1.30;;;16.50;99.90;;;;;;4993444;28;20586;-78
2023/01/02 03:18:03;;;;;;;3.93;1.40;;;16.50;99.90;;;;;;5011614;28;21000;-78
2023/01/02 03:20:37;;;;;;;5.50;1.43;;;16.50;99.90;;;;;;5026205;28;20586;-78
2023/01/02 03:23:06;;;;;;;2.73;1.10;;;16.60;99.90;;;;;;5011396;28;20972;-78
2023/01/02 03:25:34;;;;;;;5.43;1.40;;;16.60;99.90;;;;;;5026512;28;20569;-78
2023/01/02 03:28:02;;;;;;;5.93;1.63;;;16.50;99.90;;;;;;4993671;28;20687;-78
2023/01/02 03:30:31;;;;;;;4.80;1.33;;;16.50;99.90;;;;;;5008944;28;20577;-78
2023/01/02 03:33:02;;;;;;;11.43;1.73;;;16.50;99.90;;;;;;5010955;28;20739;-78
2023/01/02 03:35:34;;;;;;;5.40;1.40;;;16.50;99.90;;;;;;5025808;28;20683;-78
2023/01/02 03:38:03;;;;;;;4.03;1.60;;;16.50;99.90;;;;;;5011236;28;20612;-78
2023/01/02 03:40:42;;;;;;;5.20;1.20;;;16.50;99.90;;;;;;4993534;28;20589;-78
2023/01/02 03:43:14;;;;;;;5.83;2.70;;;16.50;99.90;;;;;;5008984;28;20592;-78
2023/01/02 03:45:51;;;;;;;5.00;1.40;;;16.50;99.90;;;;;;5010899;28;20617;-78
2023/01/02 03:48:30;;;;;;;6.63;1.80;;;16.50;99.90;;;;;;5026100;28;20620;-78
2023/01/02 03:50:58;;;;;;;4.23;1.40;;;16.50;99.90;;;;;;5025770;28;20629;-78
2023/01/02 03:53:24;;;;;;;6.10;1.73;;;16.50;99.90;;;;;;5025119;28;20645;-78
2023/01/02 03:56:05;;;;;;;4.57;1.40;;;16.50;99.90;;;;;;5025600;28;20809;-78
2023/01/02 03:58:43;;;;;;;5.67;1.70;;;16.50;99.90;;;;;;5011157;28;20676;-78
2023/01/02 04:01:19;;;;;;;3.63;1.33;;;16.50;99.90;;;;;;5012234;28;20681;-78
2023/01/02 04:03:54;;;;;;;2.90;1.07;;;16.50;99.90;;;;;;5028023;28;20725;-78
2023/01/02 04:06:27;;;;;;;9.90;1.57;;;16.50;99.90;;;;;;5070482;28;20601;-77
2023/01/02 04:09:10;;;;;;;7.23;1.70;;;16.50;99.90;;;;;;5070726;28;20588;-77
2023/01/02 04:11:40;;;;;;;4.30;1.53;;;16.50;99.90;;;;;;5060377;28;20560;-79
2023/01/02 04:14:21;;;;;;;2.90;1.30;;;16.50;99.90;;;;;;5043760;28;20590;-78
2023/01/02 04:16:48;;;;;;;4.67;1.43;;;16.50;99.90;;;;;;5061021;28;20607;-78
2023/01/02 04:19:41;;;;;;;5.83;1.80;;;16.50;99.90;;;;;;5061977;28;20572;-78
2023/01/02 04:22:12;;;;;;;8.57;1.60;;;16.50;99.90;;;;;;5041947;28;20611;-78
2023/01/02 04:24:42;;;;;;;5.37;1.50;;;16.50;99.90;;;;;;5034343;28;20629;-77
2023/01/02 04:27:27;;;;;;;8.33;1.67;;;16.50;99.90;;;;;;5033577;28;20657;-77
2023/01/02 04:29:54;;;;;;;7.30;1.33;;;16.50;99.90;;;;;;5033317;28;20590;-76
2023/01/02 04:32:26;;;;;;;4.63;1.33;;;16.50;99.90;;;;;;5052435;28;20626;-77
2023/01/02 04:34:53;;;;;;;3.87;1.40;;;16.50;99.90;;;;;;5035316;28;20587;-77
2023/01/02 04:37:29;;;;;;;4.60;1.80;;;16.50;99.90;;;;;;5035072;28;20670;-77
2023/01/02 04:39:59;;;;;;;5.10;1.30;;;16.50;99.90;;;;;;5035099;28;21137;-77
2023/01/02 04:42:25;;;;;;;4.43;1.27;;;16.50;99.90;;;;;;5051225;28;21135;-77
2023/01/02 04:44:51;;;;;;;4.10;1.50;;;16.50;99.90;;;;;;5031788;28;20596;-77
2023/01/02 04:47:17;;;;;;;4.60;1.60;;;16.50;99.90;;;;;;5015901;28;20623;-77
2023/01/02 04:49:44;;;;;;;2.90;1.30;;;16.60;99.90;;;;;;5031796;28;20634;-77
2023/01/02 04:52:10;;;;;;;4.40;1.83;;;16.50;99.90;;;;;;5031894;28;21236;-77
2023/01/02 04:54:36;;;;;;;2.67;1.33;;;16.60;99.90;;;;;;5047972;28;20191;-77
2023/01/02 04:57:01;;;;;;;3.67;1.33;;;16.50;99.90;;;;;;5049369;28;20543;-77
2023/01/02 04:59:27;;;;;;;5.43;1.40;;;16.50;99.90;;;;;;5031363;28;20272;-77
2023/01/02 05:01:53;;;;;;;10.00;1.80;;;16.50;99.90;;;;;;5049272;28;20223;-79
2023/01/02 05:04:19;;;;;;;8.30;1.90;;;16.50;99.90;;;;;;5014452;28;20599;-78
2023/01/02 05:06:45;;;;;;;4.93;1.80;;;16.50;99.90;;;;;;5031396;28;20291;-78
2023/01/02 05:09:10;;;;;;;5.67;1.93;;;16.50;99.90;;;;;;5047444;28;20173;-78
2023/01/02 05:11:36;;;;;;;3.50;1.27;;;16.50;99.90;;;;;;5047428;28;20172;-79
2023/01/02 05:14:01;;;;;;;5.00;1.43;;;16.50;99.90;;;;;;5048923;28;20176;-79
2023/01/02 05:16:27;;;;;;;4.60;1.60;;;16.50;99.90;;;;;;5048392;28;20691;-78
2023/01/02 05:18:53;;;;;;;6.87;1.73;;;16.50;99.90;;;;;;5047901;28;20169;-78
2023/01/02 05:24:03;;;;;;;3.27;1.23;;;16.50;99.90;;;;;;5049272;28;20644;-78
2023/01/02 05:26:31;;;;;;;3.53;1.60;;;16.50;99.90;;;;;;5051895;28;20626;-78
2023/01/02 05:28:58;;;;;;;3.53;1.60;;;16.50;99.90;;;;;;5053240;28;20638;-78
2023/01/02 05:31:24;;;;;;;4.67;1.53;;;16.50;99.90;;;;;;5052788;28;20582;-79
2023/01/02 05:33:54;;;;;;;6.70;1.43;;;16.60;99.90;;;;;;5034882;28;20743;-79
2023/01/02 05:36:21;;;;;;;5.60;1.30;;;16.50;99.90;;;;;;5013672;28;20635;-79
2023/01/02 05:38:47;;;;;;;4.10;1.20;;;16.50;99.90;;;;;;5024965;28;20696;-79
2023/01/02 05:41:13;;;;;;;2.97;1.07;;;16.60;99.90;;;;;;5014959;28;20919;-78
2023/01/02 05:43:40;;;;;;;4.33;1.33;;;16.50;99.90;;;;;;5032503;28;20889;-78
2023/01/02 05:46:17;;;;;;;4.87;1.83;;;16.50;99.90;;;;;;4998612;28;20585;-79
2023/01/02 05:48:44;;;;;;;4.83;1.40;;;16.50;99.90;;;;;;4998976;28;20609;-78
2023/01/02 05:51:11;;;;;;;3.60;1.57;;;16.60;99.90;;;;;;5014826;28;20723;-78
2023/01/02 05:53:39;;;;;;;7.90;1.40;;;16.60;99.90;;;;;;5014605;28;20682;-79
2023/01/02 05:56:09;;;;;;;3.20;1.70;;;16.60;99.90;;;;;;4998521;28;20568;-79
2023/01/02 05:58:37;;;;;;;4.43;2.10;;;16.50;99.90;;;;;;5015105;28;20691;-79
2023/01/02 06:01:05;;;;;;;5.87;1.37;;;16.60;99.90;;;;;;5015033;28;20643;-79
2023/01/02 06:03:31;;;;;;;3.57;1.40;;;16.60;99.90;;;;;;4998037;28;20639;-78
2023/01/02 06:06:00;;;;;;;4.37;1.20;;;16.50;99.90;;;;;;5032842;28;20577;-79
2023/01/02 06:08:26;;;;;;;4.17;1.60;;;16.60;99.90;;;;;;4998396;28;20588;-79
2023/01/02 06:10:52;;;;;;;5.40;1.50;;;16.60;99.90;;;;;;5032432;28;20584;-79
2023/01/02 06:13:18;;;;;;;5.50;1.20;;;16.60;99.90;;;;;;5013609;28;20209;-79
2023/01/02 06:15:43;;;;;;;6.53;1.60;;;16.60;99.90;;;;;;5014816;28;20590;-79
2023/01/02 06:18:09;;;;;;;8.23;1.70;;;16.60;99.90;;;;;;5027358;28;20204;-79
2023/01/02 06:20:35;;;;;;;5.67;1.50;;;16.60;99.90;;;;;;5052415;28;20173;-79
2023/01/02 06:23:00;;;;;;;6.93;1.93;;;16.60;99.90;;;;;;5050547;28;20268;-78
2023/01/02 06:25:26;;;;;;;6.07;1.80;;;16.60;99.90;;;;;;5017501;28;20660;-78
2023/01/02 06:27:52;;;;;;;5.93;1.77;;;16.60;99.90;;;;;;5050666;28;20698;-78
2023/01/02 06:30:17;;;;;;;5.00;1.73;;;16.60;99.90;;;;;;5051167;28;20173;-78
2023/01/02 06:32:44;;;;;;;4.90;1.53;;;16.60;99.90;;;;;;5033996;28;20286;-78
2023/01/02 06:35:12;;;;;;;3.47;1.20;;;16.60;99.90;;;;;;5051657;28;20970;-78
2023/01/02 06:37:43;;;;;;;4.90;0.90;;;16.60;99.90;;;;;;5017623;28;20188;-78
2023/01/02 06:40:10;;;;;;;4.23;1.40;;;16.60;99.90;;;;;;5051977;28;20939;-79
2023/01/02 06:42:35;;;;;;;4.70;0.93;;;16.60;99.90;;;;;;5051544;28;20671;-79
2023/01/02 06:45:01;;;;;;;5.63;1.50;;;16.60;99.90;;;;;;5051319;28;21064;-79
2023/01/02 06:47:27;;;;;;;6.93;1.50;;;16.60;99.90;;;;;;5051695;28;20216;-79
2023/01/02 06:49:53;;;;;;;5.30;1.37;;;16.60;99.90;;;;;;5033822;28;20729;-80
2023/01/02 06:52:18;;;;;;;5.57;1.40;;;16.60;99.90;;;;;;5036187;28;20617;-80
2023/01/02 06:54:44;;;;;;;6.20;1.70;;;16.60;99.90;;;;;;5026637;28;20173;-80
2023/01/02 06:57:10;;;;;;;4.93;1.33;;;16.60;99.90;;;;;;5031618;28;20201;-80
2023/01/02 06:59:35;;;;;;;5.13;1.17;;;16.60;99.90;;;;;;5031618;28;20706;-79
2023/01/02 07:02:01;;;;;;;6.33;1.70;;;16.60;99.90;;;;;;5016410;28;20643;-80
2023/01/02 07:04:27;;;;;;;5.90;1.60;;;16.60;99.90;;;;;;5032669;28;20180;-81
2023/01/02 07:06:53;;;;;;;3.90;1.50;;;16.60;99.90;;;;;;5033368;28;20564;-81
2023/01/02 07:09:19;;;;;;;5.30;1.60;;;16.60;99.90;;;;;;5038330;28;20243;-82
2023/01/02 07:11:44;;;;;;;7.57;1.23;;;16.50;99.90;;;;;;5046005;28;20177;-81
2023/01/02 07:14:10;;;;;;;6.17;1.30;;;16.50;99.90;;;;;;5013222;28;20573;-81
2023/01/02 07:16:36;;;;;;;9.80;2.43;;;16.50;99.90;;;;;;5013579;28;20221;-79
2023/01/02 07:19:01;;;;;;;4.37;1.20;;;16.50;99.90;;;;;;5013526;28;20173;-78
2023/01/02 07:21:28;;;;;;;7.90;1.40;;;16.50;99.90;;;;;;5034041;28;20313;-79
2023/01/02 07:23:54;;;;;;;4.57;1.33;;;16.50;99.90;;;;;;5032755;28;20169;-79
2023/01/02 07:26:20;;;;;;;5.50;1.50;;;16.50;99.90;;;;;;5049073;28;20595;-80
2023/01/02 07:28:46;;;;;;;6.70;1.30;;;16.50;99.90;;;;;;5048818;28;20203;-80
2023/01/02 07:31:15;;;;;;;7.60;1.40;;;16.50;99.90;;;;;;5049217;28;21163;-80
2023/01/02 07:33:41;;;;;;;2.60;1.27;;;16.50;99.90;;;;;;5049284;28;20639;-80
2023/01/02 07:36:11;;;;;;;7.70;1.60;;;16.50;99.90;;;;;;5050608;28;20572;-79
2023/01/02 07:38:38;;;;;;;4.63;1.80;;;16.50;99.90;;;;;;5050773;28;20627;-79
2023/01/02 07:41:10;;;;;;;3.77;1.73;;;16.40;99.90;;;;;;5050588;28;20655;-80
2023/01/02 07:43:36;;;;;;;6.33;1.63;;;16.50;99.90;;;;;;5032407;28;20963;-79
2023/01/02 07:46:03;;;;;;;5.73;1.60;;;16.40;99.90;;;;;;5021058;28;20575;-79
2023/01/02 07:48:30;;;;;;;4.20;2.07;;;16.40;99.90;;;;;;5032364;28;20268;-80
2023/01/02 07:51:03;;;;;;;4.97;1.40;;;16.40;99.90;;;;;;5050582;28;20575;-80
2023/01/02 07:53:29;;;;;;;5.00;1.30;;;16.40;99.90;;;;;;5031302;28;20739;-79
2023/01/02 07:55:59;;;;;;;4.40;1.63;;;16.40;99.90;;;;;;5032419;28;20610;-79
2023/01/02 07:58:25;;;;;;;4.70;1.60;;;16.40;99.90;;;;;;5032069;28;20631;-79
2023/01/02 08:00:53;;;;;;;5.83;1.27;;;16.30;99.90;;;;;;5032897;28;21021;-79
2023/01/02 08:03:20;;;;;;;12.00;3.30;;;16.30;99.90;;;;;;5031442;28;20595;-79
2023/01/02 08:05:46;;;;;;;4.80;1.60;;;16.30;99.90;;;;;;5049563;28;20583;-80
2023/01/02 08:08:12;;;;;;;5.97;1.70;;;16.20;99.90;;;;;;5048823;28;21184;-79
2023/01/02 08:10:37;;;;;;;4.00;1.40;;;16.20;99.90;;;;;;5015622;28;20633;-80
2023/01/02 08:13:04;;;;;;;4.80;2.30;;;16.10;99.90;;;;;;5049466;28;20211;-79
2023/01/02 08:15:30;;;;;;;3.30;1.40;;;16.10;99.90;;;;;;5050042;28;20165;-80
2023/01/02 08:17:57;;;;;;;4.13;1.30;;;16.10;99.90;;;;;;5050202;28;20607;-79
2023/01/02 08:20:23;;;;;;;3.70;1.30;;;16.10;99.90;;;;;;5015320;28;21216;-79
2023/01/02 08:22:49;;;;;;;5.43;1.60;;;16.10;99.90;;;;;;5055226;28;20563;-79
2023/01/02 08:25:15;;;;;;;6.53;1.67;;;16.10;99.90;;;;;;5031375;28;20737;-79
2023/01/02 08:27:41;;;;;;;3.30;1.20;;;16.00;99.90;;;;;;5049873;28;20705;-79
2023/01/02 08:30:07;;;;;;;5.83;1.97;;;16.00;99.90;;;;;;5032025;28;20590;-78
2023/01/02 08:32:38;;;;;;;5.23;2.07;;;16.00;99.90;;;;;;5020582;28;20366;-79
2023/01/02 08:35:05;;;;;;;6.10;1.73;;;15.90;99.90;;;;;;5052036;28;20678;-78
2023/01/02 08:37:31;;;;;;;4.70;1.63;;;15.90;99.90;;;;;;5039716;28;20618;-78
2023/01/02 08:39:56;;;;;;;4.20;2.07;;;15.80;99.90;;;;;;5054141;28;20584;-78
2023/01/02 08:42:22;;;;;;;4.87;2.00;;;15.70;99.90;;;;;;5050488;28;20271;-78
2023/01/02 08:44:48;;;;;;;5.80;1.60;;;15.70;99.90;;;;;;5033075;28;20191;-78
2023/01/02 08:47:14;;;;;;;4.90;1.70;;;15.60;99.90;;;;;;5034624;28;20258;-78
2023/01/02 08:49:49;;;;;;;4.80;1.40;;;15.50;99.90;;;;;;5034909;28;20173;-78
2023/01/02 08:52:15;;;;;;;5.63;1.60;;;15.50;99.90;;;;;;5034308;28;20232;-78
2023/01/02 08:54:40;;;;;;;6.37;1.87;;;15.40;99.90;;;;;;5051526;28;21009;-78
2023/01/02 08:57:06;;;;;;;5.93;1.50;;;15.30;99.90;;;;;;5053026;28;20196;-78
2023/01/02 08:59:32;;;;;;;3.90;1.90;;;15.20;99.90;;;;;;5058146;28;20177;-79
2023/01/02 09:01:57;;;;;;;6.60;1.43;;;15.20;99.90;;;;;;5045635;23;20213;-73
2023/01/02 09:04:23;;;;;;;3.00;1.70;;;15.20;99.90;;;;;;5027071;28;20260;-73
2023/01/02 09:06:49;;;;;;;4.20;1.80;;;15.10;99.90;;;;;;5057377;28;20678;-74
2023/01/02 09:09:16;;;;;;;3.47;1.30;;;15.10;99.90;;;;;;5039330;28;20682;-74
2023/01/02 09:11:50;;;;;;;3.73;1.60;;;15.00;99.90;;;;;;5036896;28;20200;-73
2023/01/02 09:14:18;;;;;;;3.87;1.23;;;15.00;99.90;;;;;;5049265;28;20579;-74
2023/01/02 09:16:43;;;;;;;2.33;0.80;;;14.90;99.90;;;;;;5049021;28;20999;-74
2023/01/02 09:19:09;;;;;;;3.30;1.00;;;14.90;99.90;;;;;;5030635;28;20617;-73
2023/01/02 09:21:35;;;;;;;3.63;1.07;;;14.80;99.90;;;;;;5048564;28;20185;-73
2023/01/02 09:24:01;;;;;;;2.17;0.80;;;14.80;99.90;;;;;;5030827;28;21169;-72
2023/01/02 09:26:27;;;;;;;2.10;1.00;;;14.80;99.90;;;;;;5049066;28;20177;-73
2023/01/02 09:28:52;;;;;;;3.53;0.87;;;14.80;99.90;;;;;;5048832;28;20582;-73
2023/01/02 09:31:19;;;;;;;1.70;1.00;;;14.80;99.90;;;;;;5030536;28;20285;-74
2023/01/02 09:33:45;;;;;;;2.90;0.90;;;14.80;99.90;;;;;;5029205;28;20203;-73
2023/01/02 09:36:15;;;;;;;5.97;2.03;;;14.80;99.90;;;;;;5054537;28;20642;-73
2023/01/02 09:38:41;;;;;;;1.70;0.90;;;14.70;99.90;;;;;;5042674;28;20597;-73
2023/01/02 09:41:28;;;;;;;1.93;0.90;;;14.70;99.90;;;;;;5050340;28;20594;-73
2023/01/02 09:44:02;;;;;;;2.53;1.03;;;14.70;99.90;;;;;;5068356;28;20570;-73
2023/01/02 09:46:45;;;;;;;3.73;0.80;;;14.70;99.90;;;;;;5047341;28;20610;-73
2023/01/02 09:49:15;;;;;;;2.67;0.90;;;14.70;99.90;;;;;;5047049;28;20594;-73
2023/01/02 09:51:42;;;;;;;2.10;0.80;;;14.70;99.90;;;;;;5022499;28;20691;-72
2023/01/02 09:54:26;;;;;;;2.50;0.80;;;14.70;99.90;;;;;;5039014;28;20595;-73
2023/01/02 09:57:27;;;;;;;4.30;1.03;;;14.70;99.90;;;;;;5048559;28;20580;-73
2023/01/02 10:00:08;;;;;;;2.00;0.90;;;14.80;99.90;;;;;;5038004;28;20669;-73
2023/01/02 10:03:22;;;;;;;4.70;1.20;;;14.80;99.90;;;;;;5010436;28;20588;-73
2023/01/02 10:06:18;;;;;;;1.80;0.90;;;14.80;99.90;;;;;;4981751;28;20576;-73
2023/01/02 10:08:52;;;;;;;3.50;1.10;;;14.80;99.90;;;;;;5010950;28;20585;-73
2023/01/02 10:11:52;;;;;;;4.20;1.37;;;14.80;99.90;;;;;;5014443;28;20703;-72
2023/01/02 10:14:34;;;;;;;4.07;1.10;;;14.80;99.90;;;;;;5014494;28;20588;-73
2023/01/02 10:17:04;;;;;;;3.10;0.80;;;14.80;99.90;;;;;;5032404;28;20635;-73
2023/01/02 10:19:30;;;;;;;3.57;1.23;;;14.70;99.90;;;;;;5048172;28;20685;-73
2023/01/02 10:21:59;;;;;;;3.67;1.20;;;14.70;99.90;;;;;;5063172;28;20619;-73
2023/01/02 10:24:34;;;;;;;2.70;1.50;;;14.70;99.90;;;;;;5054027;28;20700;-73
2023/01/02 10:27:00;;;;;;;2.30;1.43;;;14.70;99.90;;;;;;5071780;28;20575;-73
2023/01/02 10:29:37;;;;;;;3.20;1.20;;;14.60;99.90;;;;;;5047485;28;20575;-72
2023/01/02 10:32:15;;;;;;;1.70;1.20;;;14.60;99.90;;;;;;5051634;28;20653;-73
2023/01/02 10:35:13;;;;;;;2.20;1.20;;;14.60;99.90;;;;;;5033303;28;20618;-72
2023/01/02 10:37:38;;;;;;;2.50;1.13;;;14.50;99.90;;;;;;5040961;28;20575;-73
2023/01/02 10:40:04;;;;;;;2.30;1.10;;;14.50;99.90;;;;;;5051373;28;20582;-73
2023/01/02 10:42:31;;;;;;;3.30;1.77;;;14.50;99.90;;;;;;5033746;28;20254;-73
2023/01/02 10:44:59;;;;;;;3.40;2.00;;;14.40;99.90;;;;;;5033180;28;20603;-74
2023/01/02 10:47:38;;;;;;;2.83;1.67;;;14.40;99.90;;;;;;5062130;28;21158;-73
2023/01/02 10:50:13;;;;;;;2.77;1.63;;;14.30;99.90;;;;;;5063603;28;21180;-74
2023/01/02 10:52:49;;;;;;;4.33;2.20;;;14.30;99.90;;;;;;5072905;28;20622;-74
2023/01/02 10:55:32;;;;;;;2.37;1.70;;;14.20;99.90;;;;;;5054564;28;20583;-73
2023/01/02 10:58:06;;;;;;;4.80;1.60;;;14.20;99.90;;;;;;5052895;28;20582;-73
2023/01/02 11:00:35;;;;;;;2.93;1.93;;;14.20;99.90;;;;;;5034965;28;20614;-73
2023/01/02 11:03:15;;;;;;;2.43;1.30;;;14.20;99.90;;;;;;5064296;28;20594;-73
2023/01/02 11:05:50;;;;;;;2.10;1.23;;;14.10;99.90;;;;;;5072988;28;20606;-73
2023/01/02 11:08:19;;;;;;;5.23;2.40;;;14.10;99.90;;;;;;5072720;28;20586;-73
2023/01/02 11:10:45;;;;;;;3.40;2.20;;;14.10;99.90;;;;;;5070170;28;20609;-72
2023/01/02 11:13:19;;;;;;;3.97;2.90;;;14.10;99.90;;;;;;5059754;28;20634;-73
2023/01/02 11:15:54;;;;;;;4.83;3.40;;;14.00;99.90;;;;;;5035132;28;20626;-73
2023/01/02 11:18:24;;;;;;;7.37;3.73;;;14.00;99.90;;;;;;5052099;28;20675;-73
2023/01/02 11:20:53;;;;;;;4.63;2.30;;;14.00;99.90;;;;;;5028685;28;20693;-73
2023/01/02 11:23:23;;;;;;;3.57;1.83;;;14.00;99.90;;;;;;5063822;28;20586;-73
2023/01/02 11:25:50;;;;;;;2.93;2.00;;;14.00;99.90;;;;;;5056370;28;20689;-73
2023/01/02 11:28:21;;;;;;;2.37;1.73;;;14.00;99.90;;;;;;5077923;28;20583;-73
2023/01/02 11:30:58;;;;;;;6.47;2.40;;;13.90;99.90;;;;;;5056136;28;20705;-74
2023/01/02 11:33:30;;;;;;;5.30;3.40;;;13.90;99.90;;;;;;5072581;28;20738;-73
2023/01/02 11:36:17;;;;;;;4.38;3.40;;;13.90;99.90;;;;;;5072544;28;20574;-74
2023/01/02 11:38:49;;;;;;;4.67;3.20;;;13.80;99.90;;;;;;5072938;28;20179;-73
2023/01/02 11:44:27;;;;;;;3.47;2.40;;;13.70;99.90;;;;;;5072153;28;20567;-73
2023/01/02 11:46:55;;;;;;;2.80;1.90;;;13.70;99.90;;;;;;5040494;28;20657;-73
2023/01/02 11:49:25;;;;;;;4.60;2.10;;;13.60;99.90;;;;;;5034588;28;20587;-74
2023/01/02 11:51:58;;;;;;;4.80;3.30;;;13.60;99.90;;;;;;5032004;28;20630;-73
2023/01/02 11:54:38;;;;;;;5.30;3.13;;;13.60;99.90;;;;;;5025430;28;20714;-74
2023/01/02 11:57:49;;;;;;;5.50;3.30;;;13.60;99.90;;;;;;5033760;28;20606;-74
2023/01/02 12:00:30;;;;;;;4.07;2.55;;;13.60;99.90;;;;;;4982970;28;20589;-73
2023/01/02 12:03:02;;;;;;;4.93;2.90;;;13.60;99.90;;;;;;4952001;28;20191;-73
2023/01/02 12:05:37;;;;;;;6.40;4.90;;;13.60;99.90;;;;;;5005051;28;20565;-73
2023/01/02 12:08:20;;;;;;;8.70;5.30;;;13.60;99.90;;;;;;5034349;28;20686;-81
2023/01/02 12:11:12;;;;;;;7.60;3.67;;;13.60;99.90;;;;;;5054923;28;20201;-81
2023/01/02 12:13:52;;;;;;;5.43;3.90;;;13.50;99.90;;;;;;5013964;28;20197;-82
2023/01/02 12:16:21;;;;;;;5.70;4.03;;;13.50;99.90;;;;;;5035015;28;20213;-77
2023/01/02 12:19:05;;;;;;;4.15;3.55;;;13.50;99.90;;;;;;5062567;28;20578;-77
2023/01/02 12:21:40;;;;;;;15.38;11.00;;;13.50;99.90;;;;;;5043717;28;20200;-77
2023/01/02 12:24:34;;;;;;;15.40;11.45;;;13.60;99.90;;;;;;5059763;28;20267;-78
2023/01/02 12:27:14;;;;;;;13.48;9.90;;;13.60;99.90;;;;;;5052537;28;20177;-77
2023/01/02 12:30:15;;;;;;;7.85;5.97;;;13.60;99.90;;;;;;5033518;28;20183;-77
2023/01/02 12:32:59;;;;;;;9.27;5.30;;;13.60;99.90;;;;;;5006437;28;20236;-78
2023/01/02 12:35:38;;;;;;;5.93;3.90;;;13.70;99.90;;;;;;5033057;28;20586;-71
2023/01/02 12:38:07;;;;;;;6.60;4.63;;;13.70;99.90;;;;;;5033421;28;20674;-73
2023/01/02 12:40:45;;;;;;;6.93;4.70;;;13.70;99.90;;;;;;5032731;28;20607;-73
2023/01/02 12:43:22;;;;;;;6.83;4.67;;;13.70;99.90;;;;;;5050660;28;20575;-72
2023/01/02 12:46:12;;;;;;;7.43;3.83;;;13.70;99.90;;;;;;5032912;28;21141;-73
2023/01/02 12:49:00;;;;;;;5.83;2.57;;;13.80;99.90;;;;;;5016880;28;20180;-73
2023/01/02 12:52:08;;;;;;;3.30;1.97;;;13.80;99.90;;;;;;5032787;28;20610;-74
2023/01/02 12:55:04;;;;;;;4.88;3.25;;;13.90;99.90;;;;;;5050421;28;20907;-73
2023/01/02 12:57:30;;;;;;;6.93;3.37;;;13.90;99.90;;;;;;5050859;28;20538;-73
2023/01/02 13:00:17;;;;;;;5.33;3.27;;;13.90;99.90;;;;;;5033117;28;20564;-72
2023/01/02 13:03:22;;;;;;;4.60;3.47;;;14.00;99.90;;;;;;5032761;28;20528;-73
2023/01/02 13:06:19;;;;;;;4.43;2.03;;;14.00;99.90;;;;;;5051005;28;20580;-73
2023/01/02 13:08:57;;;;;;;5.03;2.73;;;14.00;99.90;;;;;;5064004;28;20180;-72
2023/01/02 13:11:37;;;;;;;4.40;3.20;;;14.00;99.90;;;;;;5070613;28;20606;-73
2023/01/02 13:14:05;;;;;;;3.30;1.70;;;14.00;99.90;;;;;;5061659;28;21027;-73